sensor_id;sensor_type;location;lat;lon;timestamp;temperature;humidity
42145;DHT22;27813;43.516;11.890;2023-07-20T04:34:53;20.80;70.60
42145;DHT22;27813;43.516;11.890;2023-07-20T04:38:58;21.00;70.20
42145;DHT22;27813;43.516;11.890;2023-07-20T04:43:09;21.40;70.00
42145;DHT22;27813;43.516;11.890;2023-07-20T04:47:13;22.00;69.20
42145;DHT22;27813;43.516;11.890;2023-07-20T04:51:18;22.60;68.00
42145;DHT22;27813;43.516;11.890;2023-07-20T04:55:27;23.30;66.70
42145;DHT22;27813;43.516;11.890;2023-07-20T04:59:33;24.10;64.90
42145;DHT22;27813;43.516;11.890;2023-07-20T05:03:37;24.80;63.30
42145;DHT22;27813;43.516;11.890;2023-07-20T05:07:45;25.50;61.90
42145;DHT22;27813;43.516;11.890;2023-07-20T05:11:50;26.10;60.60
42145;DHT22;27813;43.516;11.890;2023-07-20T05:15:54;26.80;59.30
42145;DHT22;27813;43.516;11.890;2023-07-20T05:19:58;27.50;58.10
42145;DHT22;27813;43.516;11.890;2023-07-20T05:24:03;28.00;57.00
42145;DHT22;27813;43.516;11.890;2023-07-20T05:28:08;28.50;56.00
42145;DHT22;27813;43.516;11.890;2023-07-20T05:32:15;29.00;55.30
42145;DHT22;27813;43.516;11.890;2023-07-20T05:36:19;29.40;54.40
42145;DHT22;27813;43.516;11.890;2023-07-20T05:40:24;30.00;53.50
42145;DHT22;27813;43.516;11.890;2023-07-20T05:44:28;30.40;52.80
42145;DHT22;27813;43.516;11.890;2023-07-20T05:48:32;31.00;51.80
42145;DHT22;27813;43.516;11.890;2023-07-20T05:52:36;31.50;50.70
42145;DHT22;27813;43.516;11.890;2023-07-20T05:56:42;32.30;49.60
42145;DHT22;27813;43.516;11.890;2023-07-20T06:01:07;32.90;48.70
42145;DHT22;27813;43.516;11.890;2023-07-20T06:06:16;33.50;47.60
42145;DHT22;27813;43.516;11.890;2023-07-20T06:10:20;34.20;46.70
42145;DHT22;27813;43.516;11.890;2023-07-20T06:14:24;34.70;46.10
42145;DHT22;27813;43.516;11.890;2023-07-20T06:18:29;35.00;45.80
42145;DHT22;27813;43.516;11.890;2023-07-20T06:22:34;35.50;45.20
42145;DHT22;27813;43.516;11.890;2023-07-20T06:26:39;35.90;44.60
42145;DHT22;27813;43.516;11.890;2023-07-20T06:30:44;36.30;44.10
42145;DHT22;27813;43.516;11.890;2023-07-20T06:34:48;36.60;43.70
42145;DHT22;27813;43.516;11.890;2023-07-20T06:38:52;37.00;43.30
42145;DHT22;27813;43.516;11.890;2023-07-20T06:43:00;37.10;43.00
42145;DHT22;27813;43.516;11.890;2023-07-20T06:47:07;37.40;42.50
42145;DHT22;27813;43.516;11.890;2023-07-20T06:51:11;37.50;42.20
42145;DHT22;27813;43.516;11.890;2023-07-20T06:55:15;37.80;41.80
42145;DHT22;27813;43.516;11.890;2023-07-20T06:59:26;38.20;41.20
42145;DHT22;27813;43.516;11.890;2023-07-20T07:03:30;38.50;40.40
42145;DHT22;27813;43.516;11.890;2023-07-20T07:07:34;38.80;39.80
42145;DHT22;27813;43.516;11.890;2023-07-20T07:11:39;38.10;40.40
42145;DHT22;27813;43.516;11.890;2023-07-20T07:15:43;36.80;42.60
42145;DHT22;27813;43.516;11.890;2023-07-20T07:19:47;35.70;44.60
42145;DHT22;27813;43.516;11.890;2023-07-20T07:23:52;34.80;46.10
42145;DHT22;27813;43.516;11.890;2023-07-20T07:28:01;34.20;47.30
42145;DHT22;27813;43.516;11.890;2023-07-20T07:32:06;33.80;47.90
42145;DHT22;27813;43.516;11.890;2023-07-20T07:36:10;33.50;48.50
42145;DHT22;27813;43.516;11.890;2023-07-20T07:40:15;33.30;49.00
42145;DHT22;27813;43.516;11.890;2023-07-20T07:44:19;33.20;49.40
42145;DHT22;27813;43.516;11.890;2023-07-20T07:48:25;33.10;49.60
42145;DHT22;27813;43.516;11.890;2023-07-20T07:52:29;33.10;49.70
42145;DHT22;27813;43.516;11.890;2023-07-20T07:56:33;33.00;49.90
42145;DHT22;27813;43.516;11.890;2023-07-20T08:00:38;32.90;50.10
42145;DHT22;27813;43.516;11.890;2023-07-20T08:04:44;33.00;50.10
42145;DHT22;27813;43.516;11.890;2023-07-20T08:08:50;32.80;50.20
42145;DHT22;27813;43.516;11.890;2023-07-20T08:12:54;32.90;50.20
42145;DHT22;27813;43.516;11.890;2023-07-20T08:16:58;32.90;50.10
42145;DHT22;27813;43.516;11.890;2023-07-20T08:21:03;33.00;50.10
42145;DHT22;27813;43.516;11.890;2023-07-20T08:25:08;33.00;50.10
42145;DHT22;27813;43.516;11.890;2023-07-20T08:29:12;33.10;50.00
42145;DHT22;27813;43.516;11.890;2023-07-20T08:33:18;33.30;49.80
42145;DHT22;27813;43.516;11.890;2023-07-20T08:37:23;33.50;49.50
42145;DHT22;27813;43.516;11.890;2023-07-20T08:41:27;33.80;49.10
42145;DHT22;27813;43.516;11.890;2023-07-20T08:45:36;33.90;48.90
42145;DHT22;27813;43.516;11.890;2023-07-20T08:49:42;34.00;48.90
42145;DHT22;27813;43.516;11.890;2023-07-20T08:53:48;34.00;48.90
42145;DHT22;27813;43.516;11.890;2023-07-20T08:57:55;34.00;49.00
42145;DHT22;27813;43.516;11.890;2023-07-20T09:02:00;34.00;49.10
42145;DHT22;27813;43.516;11.890;2023-07-20T09:06:07;33.90;49.00
42145;DHT22;27813;43.516;11.890;2023-07-20T09:10:12;33.90;49.00
42145;DHT22;27813;43.516;11.890;2023-07-20T09:14:17;34.00;48.90
42145;DHT22;27813;43.516;11.890;2023-07-20T09:18:29;34.10;48.50
42145;DHT22;27813;43.516;11.890;2023-07-20T09:22:35;34.40;48.40
42145;DHT22;27813;43.516;11.890;2023-07-20T09:26:45;34.60;48.20
42145;DHT22;27813;43.516;11.890;2023-07-20T09:30:56;35.00;47.90
42145;DHT22;27813;43.516;11.890;2023-07-20T09:35:04;35.60;47.40
42145;DHT22;27813;43.516;11.890;2023-07-20T09:39:11;36.60;46.00
42145;DHT22;27813;43.516;11.890;2023-07-20T09:43:16;38.20;42.80
42145;DHT22;27813;43.516;11.890;2023-07-20T09:47:24;39.70;40.00
42145;DHT22;27813;43.516;11.890;2023-07-20T09:51:31;40.70;38.30
42145;DHT22;27813;43.516;11.890;2023-07-20T09:55:36;41.60;37.20
42145;DHT22;27813;43.516;11.890;2023-07-20T09:59:41;42.50;35.80
42145;DHT22;27813;43.516;11.890;2023-07-20T10:03:45;43.10;35.10
42145;DHT22;27813;43.516;11.890;2023-07-20T10:07:51;43.60;34.30
42145;DHT22;27813;43.516;11.890;2023-07-20T10:12:16;44.10;33.40
42145;DHT22;27813;43.516;11.890;2023-07-20T10:16:35;44.30;32.80
42145;DHT22;27813;43.516;11.890;2023-07-20T10:20:41;44.40;32.40
42145;DHT22;27813;43.516;11.890;2023-07-20T10:24:51;44.60;32.20
42145;DHT22;27813;43.516;11.890;2023-07-20T10:28:58;45.00;31.90
42145;DHT22;27813;43.516;11.890;2023-07-20T10:33:03;45.10;31.50
42145;DHT22;27813;43.516;11.890;2023-07-20T10:37:08;45.10;31.20
42145;DHT22;27813;43.516;11.890;2023-07-20T10:41:20;44.60;31.40
42145;DHT22;27813;43.516;11.890;2023-07-20T10:45:42;44.60;31.20
42145;DHT22;27813;43.516;11.890;2023-07-20T10:50:05;44.60;31.00
42145;DHT22;27813;43.516;11.890;2023-07-20T10:58:37;45.00;30.30
42145;DHT22;27813;43.516;11.890;2023-07-20T11:02:46;44.90;30.40
42145;DHT22;27813;43.516;11.890;2023-07-20T11:06:56;45.00;30.20
42145;DHT22;27813;43.516;11.890;2023-07-20T11:11:33;45.10;29.90
42145;DHT22;27813;43.516;11.890;2023-07-20T11:20:01;44.70;29.90
42145;DHT22;27813;43.516;11.890;2023-07-20T11:24:10;44.80;30.10
42145;DHT22;27813;43.516;11.890;2023-07-20T11:28:17;45.10;29.70
42145;DHT22;27813;43.516;11.890;2023-07-20T11:32:25;45.20;29.70
42145;DHT22;27813;43.516;11.890;2023-07-20T11:36:33;45.20;29.30
42145;DHT22;27813;43.516;11.890;2023-07-20T11:40:45;45.00;29.40
42145;DHT22;27813;43.516;11.890;2023-07-20T11:44:51;45.00;29.50
42145;DHT22;27813;43.516;11.890;2023-07-20T11:48:59;45.10;29.40
42145;DHT22;27813;43.516;11.890;2023-07-20T11:53:04;45.00;29.30
42145;DHT22;27813;43.516;11.890;2023-07-20T11:57:20;44.80;29.20
42145;DHT22;27813;43.516;11.890;2023-07-20T12:01:25;44.70;29.10
42145;DHT22;27813;43.516;11.890;2023-07-20T12:05:34;44.60;29.10
42145;DHT22;27813;43.516;11.890;2023-07-20T12:10:11;44.70;29.00
42145;DHT22;27813;43.516;11.890;2023-07-20T12:14:16;44.60;28.80
42145;DHT22;27813;43.516;11.890;2023-07-20T12:18:23;44.40;29.10
42145;DHT22;27813;43.516;11.890;2023-07-20T12:22:28;44.50;29.00
42145;DHT22;27813;43.516;11.890;2023-07-20T12:26:33;44.50;28.90
42145;DHT22;27813;43.516;11.890;2023-07-20T12:30:38;44.70;28.80
42145;DHT22;27813;43.516;11.890;2023-07-20T12:34:43;44.90;28.60
42145;DHT22;27813;43.516;11.890;2023-07-20T12:38:48;44.90;28.30
42145;DHT22;27813;43.516;11.890;2023-07-20T12:42:53;44.60;28.30
42145;DHT22;27813;43.516;11.890;2023-07-20T12:46:57;44.30;28.30
42145;DHT22;27813;43.516;11.890;2023-07-20T12:51:01;44.00;28.80
42145;DHT22;27813;43.516;11.890;2023-07-20T12:55:07;43.90;28.70
42145;DHT22;27813;43.516;11.890;2023-07-20T12:59:13;43.90;27.80
42145;DHT22;27813;43.516;11.890;2023-07-20T13:03:17;43.90;27.10
42145;DHT22;27813;43.516;11.890;2023-07-20T13:07:30;43.70;26.20
42145;DHT22;27813;43.516;11.890;2023-07-20T13:11:38;43.50;25.60
42145;DHT22;27813;43.516;11.890;2023-07-20T13:15:44;43.30;25.60
42145;DHT22;27813;43.516;11.890;2023-07-20T13:19:48;43.40;25.40
42145;DHT22;27813;43.516;11.890;2023-07-20T13:23:52;43.40;25.50
42145;DHT22;27813;43.516;11.890;2023-07-20T13:27:57;43.40;25.20
42145;DHT22;27813;43.516;11.890;2023-07-20T13:32:02;43.50;25.10
42145;DHT22;27813;43.516;11.890;2023-07-20T13:36:10;43.50;25.10
42145;DHT22;27813;43.516;11.890;2023-07-20T13:40:15;43.40;25.20
42145;DHT22;27813;43.516;11.890;2023-07-20T13:44:25;43.10;25.20
42145;DHT22;27813;43.516;11.890;2023-07-20T13:48:33;43.00;25.20
42145;DHT22;27813;43.516;11.890;2023-07-20T13:52:40;43.00;25.10
42145;DHT22;27813;43.516;11.890;2023-07-20T13:56:45;43.00;25.10
42145;DHT22;27813;43.516;11.890;2023-07-20T14:00:49;42.80;25.40
42145;DHT22;27813;43.516;11.890;2023-07-20T14:04:53;42.60;25.60
42145;DHT22;27813;43.516;11.890;2023-07-20T14:09:02;42.50;25.90
42145;DHT22;27813;43.516;11.890;2023-07-20T14:13:07;42.50;26.10
42145;DHT22;27813;43.516;11.890;2023-07-20T14:17:11;42.40;26.20
42145;DHT22;27813;43.516;11.890;2023-07-20T14:21:18;42.10;26.40
42145;DHT22;27813;43.516;11.890;2023-07-20T14:25:22;42.00;26.60
42145;DHT22;27813;43.516;11.890;2023-07-20T14:29:27;41.70;26.90
42145;DHT22;27813;43.516;11.890;2023-07-20T14:33:48;41.70;27.10
42145;DHT22;27813;43.516;11.890;2023-07-20T14:37:52;41.60;27.20
42145;DHT22;27813;43.516;11.890;2023-07-20T14:41:56;41.40;27.50
42145;DHT22;27813;43.516;11.890;2023-07-20T14:46:01;41.20;27.70
42145;DHT22;27813;43.516;11.890;2023-07-20T14:50:06;41.10;27.70
42145;DHT22;27813;43.516;11.890;2023-07-20T14:54:10;41.10;27.60
42145;DHT22;27813;43.516;11.890;2023-07-20T14:58:14;41.10;27.40
42145;DHT22;27813;43.516;11.890;2023-07-20T15:02:19;41.10;27.20
42145;DHT22;27813;43.516;11.890;2023-07-20T15:06:24;41.00;27.20
42145;DHT22;27813;43.516;11.890;2023-07-20T15:10:29;40.90;27.10
42145;DHT22;27813;43.516;11.890;2023-07-20T15:14:33;40.90;27.10
42145;DHT22;27813;43.516;11.890;2023-07-20T15:18:38;40.60;26.80
42145;DHT22;27813;43.516;11.890;2023-07-20T15:22:53;40.40;27.00
42145;DHT22;27813;43.516;11.890;2023-07-20T15:26:57;40.30;27.20
42145;DHT22;27813;43.516;11.890;2023-07-20T15:31:04;40.20;27.10
42145;DHT22;27813;43.516;11.890;2023-07-20T15:35:09;40.00;27.20
42145;DHT22;27813;43.516;11.890;2023-07-20T15:39:16;40.00;27.30
42145;DHT22;27813;43.516;11.890;2023-07-20T15:43:20;40.00;27.00
42145;DHT22;27813;43.516;11.890;2023-07-20T15:47:24;39.90;26.70
42145;DHT22;27813;43.516;11.890;2023-07-20T15:51:29;39.80;26.50
42145;DHT22;27813;43.516;11.890;2023-07-20T15:55:34;39.60;26.40
42145;DHT22;27813;43.516;11.890;2023-07-20T15:59:39;39.50;26.70
42145;DHT22;27813;43.516;11.890;2023-07-20T16:03:44;39.50;27.00
42145;DHT22;27813;43.516;11.890;2023-07-20T16:07:48;39.50;27.00
42145;DHT22;27813;43.516;11.890;2023-07-20T16:11:53;39.20;27.20
42145;DHT22;27813;43.516;11.890;2023-07-20T16:15:57;39.00;27.20
42145;DHT22;27813;43.516;11.890;2023-07-20T16:20:02;38.90;27.50
42145;DHT22;27813;43.516;11.890;2023-07-20T16:24:08;38.90;27.50
42145;DHT22;27813;43.516;11.890;2023-07-20T16:28:12;38.80;27.70
42145;DHT22;27813;43.516;11.890;2023-07-20T16:32:16;38.80;28.00
42145;DHT22;27813;43.516;11.890;2023-07-20T16:36:21;38.70;28.40
42145;DHT22;27813;43.516;11.890;2023-07-20T16:40:25;38.50;28.60
42145;DHT22;27813;43.516;11.890;2023-07-20T16:44:33;38.00;29.20
42145;DHT22;27813;43.516;11.890;2023-07-20T16:48:37;37.40;29.90
42145;DHT22;27813;43.516;11.890;2023-07-20T16:52:44;36.80;30.40
42145;DHT22;27813;43.516;11.890;2023-07-20T16:56:48;36.40;30.80
42145;DHT22;27813;43.516;11.890;2023-07-20T17:01:00;36.10;31.00
42145;DHT22;27813;43.516;11.890;2023-07-20T17:05:10;35.80;31.40
42145;DHT22;27813;43.516;11.890;2023-07-20T17:09:15;35.60;31.80
42145;DHT22;27813;43.516;11.890;2023-07-20T17:13:21;35.40;32.20
42145;DHT22;27813;43.516;11.890;2023-07-20T17:17:25;35.30;32.60
42145;DHT22;27813;43.516;11.890;2023-07-20T17:21:29;35.10;32.90
42145;DHT22;27813;43.516;11.890;2023-07-20T17:25:35;34.90;33.10
42145;DHT22;27813;43.516;11.890;2023-07-20T17:29:39;34.70;33.30
42145;DHT22;27813;43.516;11.890;2023-07-20T17:33:44;34.50;33.60
42145;DHT22;27813;43.516;11.890;2023-07-20T17:37:48;34.30;33.80
42145;DHT22;27813;43.516;11.890;2023-07-20T17:41:55;34.10;34.10
42145;DHT22;27813;43.516;11.890;2023-07-20T17:45:59;34.00;34.40
42145;DHT22;27813;43.516;11.890;2023-07-20T17:50:07;33.70;34.60
42145;DHT22;27813;43.516;11.890;2023-07-20T17:54:14;33.50;34.80
42145;DHT22;27813;43.516;11.890;2023-07-20T17:58:18;33.30;35.00
42145;DHT22;27813;43.516;11.890;2023-07-20T18:02:27;33.10;35.10
42145;DHT22;27813;43.516;11.890;2023-07-20T18:06:33;33.00;35.30
42145;DHT22;27813;43.516;11.890;2023-07-20T18:10:38;33.00;35.40
42145;DHT22;27813;43.516;11.890;2023-07-20T18:14:42;32.90;35.50
42145;DHT22;27813;43.516;11.890;2023-07-20T18:18:47;32.70;35.60
42145;DHT22;27813;43.516;11.890;2023-07-20T18:22:51;32.50;35.70
42145;DHT22;27813;43.516;11.890;2023-07-20T18:26:57;32.20;35.80
42145;DHT22;27813;43.516;11.890;2023-07-20T18:31:07;31.90;36.10
42145;DHT22;27813;43.516;11.890;2023-07-20T18:35:12;31.50;36.50
42145;DHT22;27813;43.516;11.890;2023-07-20T18:39:18;31.00;36.90
42145;DHT22;27813;43.516;11.890;2023-07-20T18:43:23;30.60;37.30
42145;DHT22;27813;43.516;11.890;2023-07-20T18:47:27;30.30;37.70
42145;DHT22;27813;43.516;11.890;2023-07-20T18:51:32;29.90;38.00
42145;DHT22;27813;43.516;11.890;2023-07-20T18:55:37;29.60;38.40
42145;DHT22;27813;43.516;11.890;2023-07-20T18:59:42;29.30;38.70
42145;DHT22;27813;43.516;11.890;2023-07-20T19:03:46;29.00;39.10
42145;DHT22;27813;43.516;11.890;2023-07-20T19:07:51;28.80;39.30
42145;DHT22;27813;43.516;11.890;2023-07-20T19:11:55;28.50;39.60
42145;DHT22;27813;43.516;11.890;2023-07-20T19:16:00;28.30;39.90
42145;DHT22;27813;43.516;11.890;2023-07-20T19:20:07;28.10;40.20
42145;DHT22;27813;43.516;11.890;2023-07-20T19:24:14;28.00;40.40
42145;DHT22;27813;43.516;11.890;2023-07-20T19:28:21;27.80;40.50
42145;DHT22;27813;43.516;11.890;2023-07-20T19:32:26;27.60;40.80
42145;DHT22;27813;43.516;11.890;2023-07-20T19:36:30;27.30;41.20
42145;DHT22;27813;43.516;11.890;2023-07-20T19:40:35;27.10;41.90
42145;DHT22;27813;43.516;11.890;2023-07-20T19:44:42;26.70;42.70
42145;DHT22;27813;43.516;11.890;2023-07-20T19:49:12;26.50;43.10
42145;DHT22;27813;43.516;11.890;2023-07-20T19:53:17;26.20;43.70
42145;DHT22;27813;43.516;11.890;2023-07-20T19:57:25;26.00;43.90
42145;DHT22;27813;43.516;11.890;2023-07-20T20:01:34;25.80;44.30
42145;DHT22;27813;43.516;11.890;2023-07-20T20:05:48;25.60;44.80
42145;DHT22;27813;43.516;11.890;2023-07-20T20:10:09;25.40;45.20
42145;DHT22;27813;43.516;11.890;2023-07-20T20:14:51;25.20;45.50
42145;DHT22;27813;43.516;11.890;2023-07-20T20:18:56;25.00;45.80
42145;DHT22;27813;43.516;11.890;2023-07-20T20:23:05;24.90;46.20
42145;DHT22;27813;43.516;11.890;2023-07-20T20:27:14;24.80;46.70
42145;DHT22;27813;43.516;11.890;2023-07-20T20:31:21;24.60;47.00
42145;DHT22;27813;43.516;11.890;2023-07-20T20:35:31;24.50;47.30
42145;DHT22;27813;43.516;11.890;2023-07-20T20:39:39;24.30;47.80
42145;DHT22;27813;43.516;11.890;2023-07-20T20:43:57;24.20;48.20
42145;DHT22;27813;43.516;11.890;2023-07-20T20:48:02;24.00;48.60
42145;DHT22;27813;43.516;11.890;2023-07-20T20:52:09;23.90;49.00
42145;DHT22;27813;43.516;11.890;2023-07-20T20:56:14;23.80;49.20
42145;DHT22;27813;43.516;11.890;2023-07-20T21:01:02;23.60;49.60
42145;DHT22;27813;43.516;11.890;2023-07-20T21:05:08;23.60;49.90
42145;DHT22;27813;43.516;11.890;2023-07-20T21:09:13;23.60;50.20
42145;DHT22;27813;43.516;11.890;2023-07-20T21:13:20;23.50;50.10
42145;DHT22;27813;43.516;11.890;2023-07-20T21:17:29;23.40;50.40
42145;DHT22;27813;43.516;11.890;2023-07-20T21:21:36;23.30;50.70
42145;DHT22;27813;43.516;11.890;2023-07-20T21:25:40;23.10;51.20
42145;DHT22;27813;43.516;11.890;2023-07-20T21:29:45;23.00;51.50
42145;DHT22;27813;43.516;11.890;2023-07-20T21:33:50;22.90;51.80
42145;DHT22;27813;43.516;11.890;2023-07-20T21:38:00;22.80;52.10
42145;DHT22;27813;43.516;11.890;2023-07-20T21:42:07;22.60;52.50
42145;DHT22;27813;43.516;11.890;2023-07-20T21:46:12;22.50;53.00
42145;DHT22;27813;43.516;11.890;2023-07-20T21:50:16;22.50;53.20
42145;DHT22;27813;43.516;11.890;2023-07-20T21:54:20;22.30;53.40
42145;DHT22;27813;43.516;11.890;2023-07-20T21:58:28;22.30;54.00
42145;DHT22;27813;43.516;11.890;2023-07-20T22:02:32;22.30;54.30
42145;DHT22;27813;43.516;11.890;2023-07-20T22:06:37;22.30;54.40
42145;DHT22;27813;43.516;11.890;2023-07-20T22:10:49;22.20;54.70
42145;DHT22;27813;43.516;11.890;2023-07-20T22:14:56;22.20;55.20
42145;DHT22;27813;43.516;11.890;2023-07-20T22:19:05;22.10;55.50
42145;DHT22;27813;43.516;11.890;2023-07-20T22:23:11;22.00;55.80
42145;DHT22;27813;43.516;11.890;2023-07-20T22:27:17;22.00;56.00
42145;DHT22;27813;43.516;11.890;2023-07-20T22:31:23;21.90;56.30
42145;DHT22;27813;43.516;11.890;2023-07-20T22:35:37;21.80;56.70
42145;DHT22;27813;43.516;11.890;2023-07-20T22:39:42;21.80;57.10
42145;DHT22;27813;43.516;11.890;2023-07-20T22:43:47;21.70;57.00
42145;DHT22;27813;43.516;11.890;2023-07-20T22:47:56;21.60;57.20
42145;DHT22;27813;43.516;11.890;2023-07-20T22:52:00;21.50;57.70
42145;DHT22;27813;43.516;11.890;2023-07-20T22:56:04;21.50;58.20
42145;DHT22;27813;43.516;11.890;2023-07-20T23:00:09;21.50;58.50
42145;DHT22;27813;43.516;11.890;2023-07-20T23:04:18;21.50;58.90
42145;DHT22;27813;43.516;11.890;2023-07-20T23:08:22;21.50;59.00
42145;DHT22;27813;43.516;11.890;2023-07-20T23:12:27;21.40;59.30
42145;DHT22;27813;43.516;11.890;2023-07-20T23:16:34;21.30;59.70
42145;DHT22;27813;43.516;11.890;2023-07-20T23:20:38;21.30;59.80
42145;DHT22;27813;43.516;11.890;2023-07-20T23:24:43;21.20;60.40
42145;DHT22;27813;43.516;11.890;2023-07-20T23:28:53;21.20;60.80
